createdAt,value
2019-05-16T00:01:32.521Z,102503.36
2019-05-16T00:04:02.631Z,102502.53
2019-05-16T00:06:32.780Z,102502.49
2019-05-16T00:09:05.468Z,102497.24
2019-05-16T00:11:35.623Z,102500.19
2019-05-16T00:14:08.184Z,102493.11
2019-05-16T00:16:38.115Z,102491.13
2019-05-16T00:19:09.111Z,102492.27
2019-05-16T00:21:39.521Z,102491.45
2019-05-16T00:24:11.370Z,102491.13
2019-05-16T00:26:41.616Z,102493.00
2019-05-16T00:29:11.826Z,102489.14
2019-05-16T00:31:42.036Z,102488.88
2019-05-16T00:34:12.178Z,102482.16
2019-05-16T00:36:42.517Z,102483.34
2019-05-16T00:39:12.921Z,102485.39
2019-05-16T00:41:43.088Z,102487.02
2019-05-16T00:44:13.494Z,102483.34
2019-05-16T00:46:45.194Z,102482.78
2019-05-16T00:49:15.376Z,102481.98
2019-05-16T00:51:45.573Z,102476.30
2019-05-16T00:54:15.850Z,102478.78
2019-05-16T00:56:48.600Z,102474.23
2019-05-16T00:59:18.925Z,102477.90
2019-05-16T01:01:50.449Z,102470.91
2019-05-16T01:04:20.727Z,102475.70
2019-05-16T01:06:51.524Z,102471.39
2019-05-16T01:09:21.758Z,102469.63
2019-05-16T01:11:51.965Z,102465.52
2019-05-16T01:14:22.266Z,102465.52
2019-05-16T01:16:55.571Z,102467.02
2019-05-16T01:19:27.749Z,102470.13
2019-05-16T01:21:58.986Z,102461.64
2019-05-16T01:24:29.432Z,102463.87
2019-05-16T01:26:59.779Z,102459.09
2019-05-16T01:29:30.003Z,102465.11
2019-05-16T01:32:00.191Z,102462.73
2019-05-16T01:34:30.493Z,102462.18
2019-05-16T01:37:00.636Z,102462.59
2019-05-16T01:39:30.853Z,102460.11
2019-05-16T01:42:01.089Z,102456.89
2019-05-16T01:44:31.251Z,102458.19
2019-05-16T01:47:01.438Z,102458.33
2019-05-16T01:49:31.593Z,102460.89
2019-05-16T01:52:01.760Z,102459.27
2019-05-16T01:54:32.243Z,102452.84
2019-05-16T01:57:04.023Z,102459.17
2019-05-16T01:59:34.192Z,102451.77
2019-05-16T02:02:04.328Z,102450.58
2019-05-16T02:04:37.963Z,102447.84
2019-05-16T02:07:08.538Z,102446.23
2019-05-16T02:09:38.868Z,102444.09
2019-05-16T02:12:10.787Z,102447.59
2019-05-16T02:14:41.394Z,102437.13
2019-05-16T02:17:11.622Z,102440.80
2019-05-16T02:19:41.937Z,102443.31
2019-05-16T02:22:12.182Z,102439.34
2019-05-16T02:24:42.394Z,102439.13
2019-05-16T02:27:13.697Z,102440.48
2019-05-16T02:29:44.047Z,102442.34
2019-05-16T02:32:15.661Z,102441.08
2019-05-16T02:34:45.798Z,102432.39
2019-05-16T02:37:24.038Z,102427.09
2019-05-16T02:39:51.562Z,102425.44
2019-05-16T02:42:21.230Z,102421.00
2019-05-16T02:44:52.651Z,102428.01
2019-05-16T02:47:22.781Z,102424.73
2019-05-16T02:49:52.892Z,102417.83
2019-05-16T02:52:23.018Z,102424.39
2019-05-16T02:54:53.115Z,102422.82
2019-05-16T02:57:23.356Z,102424.72
2019-05-16T02:59:53.509Z,102424.73
2019-05-16T03:02:23.601Z,102419.30
2019-05-16T03:04:53.687Z,102414.33
2019-05-16T03:07:37.963Z,102422.31
2019-05-16T03:09:57.034Z,102415.30
2019-05-16T03:12:30.945Z,102408.61
2019-05-16T03:15:02.420Z,102411.03
2019-05-16T03:17:36.214Z,102403.33
2019-05-16T03:20:06.730Z,102408.12
2019-05-16T03:22:40.951Z,102392.56
2019-05-16T03:25:11.934Z,102400.45
2019-05-16T03:27:42.230Z,102395.08
2019-05-16T03:30:15.985Z,102391.58
2019-05-16T03:32:47.378Z,102391.86
2019-05-16T03:35:23.859Z,102389.77
2019-05-16T03:37:56.906Z,102394.46
2019-05-16T03:40:26.370Z,102393.27
2019-05-16T03:42:56.495Z,102388.27
2019-05-16T03:45:26.697Z,102390.53
2019-05-16T03:47:56.730Z,102391.39
2019-05-16T03:50:26.963Z,102381.47
2019-05-16T03:52:57.166Z,102386.35
2019-05-16T03:55:32.084Z,102382.42
2019-05-16T03:58:01.149Z,102376.88
2019-05-16T04:00:55.993Z,102382.50
2019-05-16T04:03:28.872Z,102383.13
2019-05-16T04:06:01.260Z,102378.08
2019-05-16T04:08:31.182Z,102378.65
2019-05-16T04:11:02.601Z,102379.62
2019-05-16T04:13:32.990Z,102380.02
2019-05-16T04:16:03.323Z,102368.19
2019-05-16T04:18:33.482Z,102374.31
2019-05-16T04:21:03.791Z,102375.66
2019-05-16T04:23:34.135Z,102381.14
2019-05-16T04:26:04.263Z,102373.88
2019-05-16T04:28:34.742Z,102375.23
2019-05-16T04:31:04.887Z,102377.38
2019-05-16T04:33:35.058Z,102374.14
2019-05-16T04:36:05.178Z,102377.43
2019-05-16T04:38:41.385Z,102370.80
2019-05-16T04:41:07.284Z,102373.25
2019-05-16T04:43:37.458Z,102378.41
2019-05-16T04:46:07.611Z,102376.36
2019-05-16T04:48:41.444Z,102382.95
2019-05-16T04:51:10.649Z,102373.26
2019-05-16T04:53:42.556Z,102370.17
2019-05-16T04:56:13.258Z,102368.05
2019-05-16T04:58:43.538Z,102365.05
2019-05-16T05:01:13.713Z,102372.39
2019-05-16T05:04:00.119Z,102367.76
2019-05-16T05:06:15.856Z,102368.50
2019-05-16T05:08:59.120Z,102368.92
2019-05-16T05:11:26.610Z,102373.44
2019-05-16T05:13:56.787Z,102369.34
2019-05-16T05:16:27.192Z,102366.67
2019-05-16T05:19:00.302Z,102367.46
2019-05-16T05:21:31.426Z,102364.58
2019-05-16T05:24:01.719Z,102365.95
2019-05-16T05:26:34.864Z,102361.69
2019-05-16T05:29:06.301Z,102363.31
2019-05-16T05:31:36.479Z,102359.59
2019-05-16T05:34:06.683Z,102362.89
2019-05-16T05:36:40.869Z,102362.02
2019-05-16T05:39:15.594Z,102359.08
2019-05-16T05:41:45.202Z,102362.73
2019-05-16T05:44:15.401Z,102363.05
2019-05-16T05:46:45.626Z,102361.73
2019-05-16T05:49:20.504Z,102356.16
2019-05-16T05:51:50.892Z,102351.42
2019-05-16T05:54:21.080Z,102353.57
2019-05-16T05:56:51.254Z,102353.23
2019-05-16T05:59:24.025Z,102347.25
2019-05-16T06:01:54.228Z,102352.36
2019-05-16T06:04:24.358Z,102356.23
2019-05-16T06:06:54.593Z,102351.46
2019-05-16T06:09:29.122Z,102354.55
2019-05-16T06:11:56.775Z,102348.39
2019-05-16T06:14:27.007Z,102355.52
2019-05-16T06:17:00.377Z,102353.91
2019-05-16T06:19:30.800Z,102348.86
2019-05-16T06:22:01.569Z,102347.06
2019-05-16T06:24:32.126Z,102347.06
2019-05-16T06:27:03.902Z,102349.59
2019-05-16T06:29:34.204Z,102349.66
2019-05-16T06:32:04.430Z,102336.36
2019-05-16T06:34:34.676Z,102332.05
2019-05-16T06:37:04.870Z,102330.69
2019-05-16T06:39:42.043Z,102322.73
2019-05-16T06:42:06.960Z,102324.30
2019-05-16T06:44:37.193Z,102326.15
2019-05-16T06:47:16.969Z,102325.03
2019-05-16T06:49:40.258Z,102328.30
2019-05-16T06:52:10.567Z,102327.17
2019-05-16T06:54:40.828Z,102326.59
2019-05-16T06:57:11.226Z,102333.67
2019-05-16T06:59:41.552Z,102322.06
2019-05-16T07:02:25.201Z,102322.73
2019-05-16T07:04:43.554Z,102317.80
2019-05-16T07:07:13.983Z,102314.20
2019-05-16T07:09:57.177Z,102314.67
2019-05-16T07:12:15.978Z,102304.81
2019-05-16T07:14:46.170Z,102307.29
2019-05-16T07:17:16.442Z,102309.62
2019-05-16T07:19:46.672Z,102301.25
2019-05-16T07:22:16.847Z,102297.18
2019-05-16T07:24:46.988Z,102301.66
2019-05-16T07:27:17.190Z,102302.25
2019-05-16T07:29:47.330Z,102303.95
2019-05-16T07:32:19.710Z,102298.73
2019-05-16T07:34:50.568Z,102296.28
2019-05-16T07:37:22.832Z,102294.61
2019-05-16T07:39:53.014Z,102287.23
2019-05-16T07:42:24.773Z,102279.42
2019-05-16T07:44:55.025Z,102275.87
2019-05-16T07:47:25.168Z,102266.08
2019-05-16T07:49:59.583Z,102268.93
2019-05-16T07:52:35.208Z,102263.17
2019-05-16T07:55:03.976Z,102269.74
2019-05-16T07:57:34.055Z,102263.52
2019-05-16T08:00:04.664Z,102269.95
2019-05-16T08:02:34.900Z,102273.30
2019-05-16T08:05:06.942Z,102270.65
2019-05-16T08:07:37.324Z,102280.80
2019-05-16T08:10:10.601Z,102277.78
2019-05-16T08:12:43.129Z,102274.91
2019-05-16T08:15:13.780Z,102260.16
2019-05-16T08:17:44.625Z,102260.05
2019-05-16T08:20:14.930Z,102252.34
2019-05-16T08:22:45.118Z,102252.31
2019-05-16T08:25:15.467Z,102257.28
2019-05-16T08:27:45.793Z,102260.05
2019-05-16T08:30:21.070Z,102250.95
2019-05-16T08:32:52.744Z,102246.83
2019-05-16T08:35:22.836Z,102248.73
2019-05-16T08:37:53.031Z,102241.09
2019-05-16T08:40:24.404Z,102232.97
2019-05-16T08:42:54.750Z,102239.86
2019-05-16T08:45:24.887Z,102234.25
2019-05-16T08:47:55.096Z,102227.97
2019-05-16T08:50:25.290Z,102221.40
2019-05-16T08:52:55.509Z,102224.43
2019-05-16T08:55:25.606Z,102225.34
2019-05-16T08:57:55.730Z,102219.20
2019-05-16T09:00:26.481Z,102217.50
2019-05-16T09:02:56.699Z,102215.98
2019-05-16T09:05:26.908Z,102215.94
2019-05-16T09:08:00.838Z,102220.83
2019-05-16T09:10:58.655Z,102214.37
2019-05-16T09:13:00.998Z,102212.47
2019-05-16T09:15:34.521Z,102211.03
2019-05-16T09:18:07.515Z,102212.42
2019-05-16T09:20:37.456Z,102208.30
2019-05-16T09:23:08.699Z,102200.06
2019-05-16T09:25:39.039Z,102200.17
2019-05-16T09:28:09.290Z,102198.05
2019-05-16T09:30:40.610Z,102193.38
2019-05-16T09:33:18.913Z,102188.79
2019-05-16T09:35:50.498Z,102195.48
2019-05-16T09:38:23.775Z,102189.33
2019-05-16T09:40:53.100Z,102188.72
2019-05-16T09:43:23.331Z,102188.83
2019-05-16T09:45:59.935Z,102188.92
2019-05-16T09:48:28.047Z,102191.31
2019-05-16T09:50:57.983Z,102188.53
2019-05-16T09:53:28.264Z,102186.09
2019-05-16T09:55:58.740Z,102185.19
2019-05-16T09:58:29.045Z,102178.13
2019-05-16T10:00:59.511Z,102186.29
2019-05-16T10:03:29.741Z,102184.86
2019-05-16T10:05:59.987Z,102179.13
2019-05-16T10:08:30.231Z,102170.48
2019-05-16T10:11:00.887Z,102164.54
2019-05-16T10:13:31.127Z,102166.20
2019-05-16T10:16:01.573Z,102169.70
2019-05-16T10:18:31.881Z,102150.17
2019-05-16T10:21:02.082Z,102157.85
2019-05-16T10:23:36.439Z,102156.66
2019-05-16T10:26:06.748Z,102152.07
2019-05-16T10:28:38.475Z,102153.38
2019-05-16T10:31:09.855Z,102149.70
2019-05-16T10:33:40.171Z,102142.36
2019-05-16T10:36:10.358Z,102139.22
2019-05-16T10:38:40.471Z,102140.11
2019-05-16T10:41:13.835Z,102138.45
2019-05-16T10:43:44.250Z,102140.69
2019-05-16T10:46:17.447Z,102132.64
2019-05-16T10:48:47.481Z,102135.17
2019-05-16T10:51:17.645Z,102127.97
2019-05-16T10:54:13.137Z,102127.39
2019-05-16T10:56:19.799Z,102121.83
2019-05-16T10:59:14.162Z,102132.04
2019-05-16T11:01:27.554Z,102128.20
2019-05-16T11:03:56.640Z,102128.61
2019-05-16T11:06:29.160Z,102124.23
2019-05-16T11:08:57.597Z,102115.98
2019-05-16T11:11:27.744Z,102120.93
2019-05-16T11:13:57.974Z,102114.66
2019-05-16T11:16:29.667Z,102107.95
2019-05-16T11:19:14.442Z,102115.05
2019-05-16T11:21:32.593Z,102106.19
2019-05-16T11:24:02.790Z,102104.91
2019-05-16T11:26:32.867Z,102101.90
2019-05-16T11:29:03.098Z,102106.11
2019-05-16T11:31:33.399Z,102104.31
2019-05-16T11:34:03.627Z,102106.12
2019-05-16T11:36:33.747Z,102095.11
2019-05-16T11:39:08.617Z,102095.06
2019-05-16T11:41:39.109Z,102091.24
2019-05-16T11:44:09.293Z,102081.98
2019-05-16T11:46:39.463Z,102073.07
2019-05-16T11:49:10.812Z,102064.26
2019-05-16T11:51:40.924Z,102068.77
2019-05-16T11:54:12.147Z,102064.20
2019-05-16T11:56:42.282Z,102055.55
2019-05-16T11:59:12.467Z,102054.72
2019-05-16T12:01:42.651Z,102065.29
2019-05-16T12:04:12.799Z,102058.11
2019-05-16T12:06:43.017Z,102047.05
2019-05-16T12:09:13.419Z,102043.97
2019-05-16T12:11:45.160Z,102026.77
2019-05-16T12:14:16.564Z,102027.22
2019-05-16T12:16:47.417Z,102025.65
2019-05-16T12:19:18.242Z,102023.37
2019-05-16T12:21:48.566Z,102029.61
2019-05-16T12:24:31.972Z,102029.03
2019-05-16T12:26:50.561Z,102030.48
2019-05-16T12:29:20.744Z,102025.09
2019-05-16T12:31:57.574Z,102019.91
2019-05-16T12:34:22.831Z,102018.81
2019-05-16T12:36:53.015Z,102018.58
2019-05-16T12:39:23.391Z,102003.66
2019-05-16T12:41:53.583Z,102001.24
2019-05-16T12:44:26.871Z,101992.34
2019-05-16T12:46:57.129Z,101995.45
2019-05-16T12:49:27.330Z,101989.04
2019-05-16T12:51:59.731Z,101978.80
2019-05-16T12:54:31.036Z,101979.05
2019-05-16T12:57:01.424Z,101977.09
2019-05-16T12:59:31.585Z,101972.95
2019-05-16T13:02:01.768Z,101975.77
2019-05-16T13:04:32.050Z,101967.40
2019-05-16T13:07:02.388Z,101975.09
2019-05-16T13:09:32.672Z,101964.12
2019-05-16T13:12:06.910Z,101961.19
2019-05-16T13:14:40.317Z,101953.56
2019-05-16T13:17:19.521Z,101951.63
2019-05-16T13:19:57.656Z,101936.61
2019-05-16T13:22:27.897Z,101938.42
2019-05-16T13:24:58.131Z,101931.22
2019-05-16T13:27:28.346Z,101934.45
2019-05-16T13:29:58.698Z,101922.46
2019-05-16T13:32:28.931Z,101922.48
2019-05-16T13:34:59.388Z,101921.50
2019-05-16T13:37:30.560Z,101919.67
2019-05-16T13:40:00.749Z,101905.71
2019-05-16T13:42:30.977Z,101912.46
2019-05-16T13:45:01.776Z,101905.13
2019-05-16T13:47:32.139Z,101896.92
2019-05-16T13:50:04.456Z,101891.72
2019-05-16T13:52:36.610Z,101887.52
2019-05-16T13:55:08.279Z,101889.34
2019-05-16T13:57:38.339Z,101887.56
2019-05-16T14:00:09.799Z,101883.34
2019-05-16T14:02:41.419Z,101889.03
2019-05-16T14:05:12.179Z,101876.48
2019-05-16T14:07:42.320Z,101893.23
2019-05-16T14:10:12.758Z,101879.36
2019-05-16T14:12:42.878Z,101872.81
2019-05-16T14:15:13.705Z,101867.39
2019-05-16T14:17:43.929Z,101873.55
2019-05-16T14:20:17.970Z,101861.21
2019-05-16T14:22:47.121Z,101855.37
2019-05-16T14:25:17.513Z,101852.77
2019-05-16T14:27:48.580Z,101849.86
2019-05-16T14:30:21.956Z,101850.08
2019-05-16T14:32:52.274Z,101841.25
2019-05-16T14:35:22.753Z,101841.52
2019-05-16T14:37:57.391Z,101838.57
2019-05-16T14:40:27.774Z,101838.44
2019-05-16T14:42:58.245Z,101835.12
2019-05-16T14:45:28.629Z,101833.97
2019-05-16T14:47:58.928Z,101829.80
2019-05-16T14:50:29.067Z,101832.50
2019-05-16T14:53:00.279Z,101828.23
2019-05-16T14:55:32.989Z,101828.26
2019-05-16T14:58:03.181Z,101826.11
2019-05-16T15:00:37.951Z,101824.55
2019-05-16T15:03:08.193Z,101821.90
2019-05-16T15:05:42.531Z,101819.34
2019-05-16T15:08:11.064Z,101825.34
2019-05-16T15:10:46.742Z,101819.14
2019-05-16T15:13:17.433Z,101804.11
2019-05-16T15:15:47.887Z,101803.37
2019-05-16T15:18:18.273Z,101795.73
2019-05-16T15:20:49.419Z,101801.20
2019-05-16T15:23:19.708Z,101789.24
2019-05-16T15:25:51.444Z,101789.26
2019-05-16T15:28:54.665Z,101785.06
2019-05-16T15:30:57.576Z,101777.53
2019-05-16T15:33:27.856Z,101770.68
2019-05-16T15:35:58.167Z,101773.78
2019-05-16T15:38:28.660Z,101770.50
2019-05-16T15:41:00.557Z,101765.63
2019-05-16T15:43:30.838Z,101770.72
2019-05-16T15:46:01.663Z,101761.38
2019-05-16T15:48:32.148Z,101762.63
2019-05-16T15:51:02.322Z,101760.84
2019-05-16T15:53:32.704Z,101753.11
2019-05-16T15:56:02.900Z,101750.31
2019-05-16T15:58:33.291Z,101749.69
2019-05-16T16:01:03.583Z,101748.91
2019-05-16T16:03:34.088Z,101752.69
2019-05-16T16:06:06.835Z,101750.03
2019-05-16T16:08:37.605Z,101754.41
2019-05-16T16:11:07.917Z,101747.14
2019-05-16T16:13:38.189Z,101743.25
2019-05-16T16:16:10.045Z,101741.90
2019-05-16T16:18:40.516Z,101741.92
2019-05-16T16:21:10.743Z,101734.66
2019-05-16T16:23:40.898Z,101738.66
2019-05-16T16:26:11.147Z,101731.47
2019-05-16T16:28:41.388Z,101736.89
2019-05-16T16:31:11.634Z,101737.20
2019-05-16T16:33:41.966Z,101724.58
2019-05-16T16:36:12.130Z,101725.70
2019-05-16T16:38:42.687Z,101718.80
2019-05-16T16:41:13.491Z,101719.13
2019-05-16T16:43:43.659Z,101717.97
2019-05-16T16:46:16.614Z,101719.97
2019-05-16T16:48:46.241Z,101717.48
2019-05-16T16:51:17.581Z,101715.84
2019-05-16T16:53:48.202Z,101713.75
2019-05-16T16:56:20.017Z,101718.02
2019-05-16T16:58:50.290Z,101720.82
2019-05-16T17:01:20.435Z,101718.41
2019-05-16T17:03:54.554Z,101725.48
2019-05-16T17:06:23.595Z,101712.53
2019-05-16T17:08:53.768Z,101709.19
2019-05-16T17:11:26.445Z,101702.02
2019-05-16T17:13:56.855Z,101702.45
2019-05-16T17:16:29.154Z,101701.67
2019-05-16T17:18:58.981Z,101695.03
2019-05-16T17:21:29.189Z,101707.81
2019-05-16T17:23:59.422Z,101713.31
2019-05-16T17:26:29.820Z,101706.52
2019-05-16T17:29:00.163Z,101706.95
2019-05-16T17:31:31.952Z,101707.92
2019-05-16T17:34:02.378Z,101709.92
2019-05-16T17:36:32.564Z,101700.11
2019-05-16T17:39:04.575Z,101704.61
2019-05-16T17:41:38.167Z,101697.57
2019-05-16T17:44:08.530Z,101687.75
2019-05-16T17:46:40.963Z,101685.91
2019-05-16T17:49:10.959Z,101678.80
2019-05-16T17:51:42.149Z,101671.43
2019-05-16T17:54:12.415Z,101677.37
2019-05-16T17:56:42.537Z,101667.08
2019-05-16T17:59:12.913Z,101662.00
2019-05-16T18:01:43.175Z,101661.29
2019-05-16T18:04:13.523Z,101662.38
2019-05-16T18:06:43.754Z,101658.03
2019-05-16T18:09:14.009Z,101653.45
2019-05-16T18:11:46.658Z,101656.60
2019-05-16T18:14:17.230Z,101657.94
2019-05-16T18:16:58.571Z,101654.69
2019-05-16T18:19:23.820Z,101658.41
2019-05-16T18:21:53.962Z,101655.60
2019-05-16T18:24:24.215Z,101651.55
2019-05-16T18:26:54.225Z,101655.82
2019-05-16T18:29:26.785Z,101656.72
2019-05-16T18:31:56.497Z,101656.02
2019-05-16T18:34:30.007Z,101652.18
2019-05-16T18:37:00.324Z,101655.15
2019-05-16T18:39:30.693Z,101643.53
2019-05-16T18:42:02.781Z,101641.12
2019-05-16T18:44:53.218Z,101646.94
2019-05-16T18:47:23.436Z,101647.88
2019-05-16T18:49:53.611Z,101637.54
2019-05-16T18:52:23.908Z,101633.05
2019-05-16T18:54:54.150Z,101629.20
2019-05-16T18:57:26.815Z,101627.86
2019-05-16T18:59:56.794Z,101624.66
2019-05-16T19:02:27.342Z,101617.45
2019-05-16T19:04:59.410Z,101614.98
2019-05-16T19:07:29.635Z,101609.13
2019-05-16T19:09:59.852Z,101609.73
2019-05-16T19:12:30.777Z,101602.64
2019-05-16T19:15:01.037Z,101603.84
2019-05-16T19:17:31.809Z,101600.78
2019-05-16T19:20:02.190Z,101598.59
2019-05-16T19:22:32.585Z,101590.03
2019-05-16T19:25:02.952Z,101589.25
2019-05-16T19:27:33.366Z,101585.55
2019-05-16T19:30:03.776Z,101594.80
2019-05-16T19:32:38.965Z,101584.08
2019-05-16T19:35:08.450Z,101582.92
2019-05-16T19:37:40.768Z,101583.67
2019-05-16T19:40:11.556Z,101587.57
2019-05-16T19:42:42.161Z,101586.52
2019-05-16T19:45:17.210Z,101576.23
2019-05-16T19:47:47.471Z,101576.23
2019-05-16T19:50:19.229Z,101571.22
2019-05-16T19:52:49.594Z,101570.95
2019-05-16T19:55:19.959Z,101573.67
2019-05-16T19:57:50.281Z,101562.81
2019-05-16T20:00:20.529Z,101569.37
2019-05-16T20:02:52.351Z,101572.59
2019-05-16T20:05:22.910Z,101571.72
2019-05-16T20:07:53.081Z,101565.36
2019-05-16T20:10:23.310Z,101563.53
2019-05-16T20:12:53.576Z,101556.36
2019-05-16T20:15:23.802Z,101558.23
2019-05-16T20:17:57.786Z,101555.17
2019-05-16T20:20:27.539Z,101552.37
2019-05-16T20:22:57.756Z,101549.42
2019-05-16T20:25:28.016Z,101538.61
2019-05-16T20:27:58.177Z,101534.43
2019-05-16T20:30:28.463Z,101536.80
2019-05-16T20:32:58.718Z,101527.97
2019-05-16T20:35:29.026Z,101529.86
2019-05-16T20:37:59.150Z,101527.57
2019-05-16T20:40:29.326Z,101519.43
2019-05-16T20:42:59.587Z,101520.27
2019-05-16T20:45:29.671Z,101512.19
2019-05-16T20:48:10.871Z,101504.43
2019-05-16T20:50:31.768Z,101499.80
2019-05-16T20:53:01.948Z,101497.50
2019-05-16T20:55:32.146Z,101496.86
2019-05-16T20:58:02.288Z,101489.88
2019-05-16T21:00:33.505Z,101489.33
2019-05-16T21:03:03.620Z,101490.73
2019-05-16T21:05:33.879Z,101483.98
2019-05-16T21:08:06.277Z,101473.33
2019-05-16T21:10:35.858Z,101466.84
2019-05-16T21:13:07.171Z,101457.34
2019-05-16T21:15:37.705Z,101458.45
2019-05-16T21:18:07.907Z,101449.98
2019-05-16T21:20:38.889Z,101447.30
2019-05-16T21:23:09.249Z,101429.23
2019-05-16T21:25:39.523Z,101430.84
2019-05-16T21:28:09.782Z,101435.86
2019-05-16T21:30:40.149Z,101429.81
2019-05-16T21:33:10.543Z,101430.53
2019-05-16T21:35:40.790Z,101409.31
2019-05-16T21:38:10.997Z,101419.94
2019-05-16T21:40:41.189Z,101417.38
2019-05-16T21:43:13.039Z,101416.00
2019-05-16T21:45:43.214Z,101418.41
2019-05-16T21:48:16.330Z,101410.42
2019-05-16T21:50:47.140Z,101406.28
2019-05-16T21:53:17.836Z,101402.98
2019-05-16T21:55:48.020Z,101407.05
2019-05-16T21:58:18.271Z,101401.33
2019-05-16T22:00:51.374Z,101404.95
2019-05-16T22:03:21.891Z,101402.91
2019-05-16T22:05:52.159Z,101390.20
2019-05-16T22:08:22.341Z,101391.66
2019-05-16T22:10:52.898Z,101395.73
2019-05-16T22:13:23.391Z,101388.91
2019-05-16T22:15:53.704Z,101382.27
2019-05-16T22:18:26.661Z,101377.62
2019-05-16T22:20:57.113Z,101374.56
2019-05-16T22:23:27.605Z,101377.40
2019-05-16T22:25:57.731Z,101376.06
2019-05-16T22:28:30.106Z,101370.42
2019-05-16T22:30:59.828Z,101365.47
2019-05-16T22:33:30.011Z,101364.90
2019-05-16T22:36:00.150Z,101364.90
2019-05-16T22:38:31.955Z,101364.17
2019-05-16T22:41:02.193Z,101360.61
2019-05-16T22:43:32.402Z,101357.11
2019-05-16T22:46:02.656Z,101347.37
2019-05-16T22:48:32.756Z,101348.18
2019-05-16T22:51:06.952Z,101346.80
2019-05-16T22:53:36.921Z,101344.98
2019-05-16T22:56:07.531Z,101347.60
2019-05-16T22:58:38.910Z,101349.25
2019-05-16T23:01:09.112Z,101346.72
2019-05-16T23:03:45.785Z,101342.27
2019-05-16T23:06:16.353Z,101342.93
2019-05-16T23:08:47.128Z,101337.06
2019-05-16T23:11:17.509Z,101345.42
2019-05-16T23:13:47.726Z,101345.34
2019-05-16T23:16:17.907Z,101345.69
2019-05-16T23:18:48.191Z,101341.20
2019-05-16T23:21:18.379Z,101334.80
2019-05-16T23:23:48.556Z,101330.46
2019-05-16T23:26:18.748Z,101331.77
2019-05-16T23:28:48.913Z,101329.43
2019-05-16T23:31:20.974Z,101332.04
2019-05-16T23:33:51.060Z,101329.34
2019-05-16T23:36:21.240Z,101320.64
2019-05-16T23:38:51.410Z,101329.80
2019-05-16T23:41:21.688Z,101317.16
2019-05-16T23:43:51.834Z,101316.00
2019-05-16T23:46:22.003Z,101319.41
2019-05-16T23:48:52.209Z,101315.35
2019-05-16T23:51:24.013Z,101315.92
2019-05-16T23:53:54.246Z,101312.59
2019-05-16T23:56:24.387Z,101314.24
2019-05-16T23:58:56.849Z,101309.02
